Terminal Aerodrome Forecast
Issued by NWS Charleston, WV

Current Version | Previous Version | Text Only | Print | Product List | Glossary Off
Versions: 1 2 3 4 5 6 7 8 9 10 11 12 13 14 15 16 17 18 19 20 21 22 23 24 25 26

000
FTUS41 KRLX 300800 AAA
TAFCRW
TAF AMD
KCRW 300839Z 3009/3106 00000KT 1/4SM FG VV001
      TEMPO 3010/3012 2SM BR BKN002
     FM301200 00000KT 3SM BR SCT050
     FM301500 25004KT P6SM SCT090
     FM310200 00000KT P6SM SCT060=

USA.gov is the U.S. government's official web portal to all federal, state and local government web resources and services.